Aeroporto :
LOGIN :

Iscrizione | Disclaimer

   EN    FR    IT 

 










Sommario :    VFR   VFR Marginale   IFR   IFR Intensivo   IFR Molto Intensivo
Visibilità : 
Base nubi : 
>= 8 km
>= 3000ft
5 / 8 km
1000 / 3000 ft
1500m / 5 km
500 / 1000 ft
800 / 1500m
200 / 500 ft
< 800m
< 200 ft
Simboli :   Temporali  Nebbia  Neve Forte  Precipitazioni Forti  Vento > 20 kt
SIGMETs :   Varie  Temporali  Ghiacco  Turbolenza  Onda orograficha  Ceneri Vulcaniche






- Altitudine del aeroporto : 14 ft
- Codice IATA : BRE


EDDW - Bremen Neuenland

ULTIMO METAR :
  • 211450Z AUTO 05008KT 020V110 CAVOK 10/M02 Q1025 TEMPO 06013KT

METARs OBSOLETI :
  • 211420Z AUTO 06009KT 360V090 CAVOK 10/M03 Q1025 TEMPO 08015G25KT
  • 211350Z AUTO 07011KT 030V110 CAVOK 10/M03 Q1025 TEMPO 08015G25KT
  • 211320Z AUTO 07012KT 030V100 CAVOK 10/M02 Q1025 TEMPO 08015G25KT
  • 211250Z AUTO 07009KT 040V120 CAVOK 10/M02 Q1025 TEMPO 08015G25KT
  • 211220Z AUTO 06013KT 020V100 CAVOK 09/M02 Q1025 TEMPO 08015G25KT
  • 211150Z AUTO 07012G26KT 020V110 CAVOK 10/M02 Q1025 NOSIG
  • 211120Z AUTO 08013KT 030V110 CAVOK 10/M02 Q1025 TEMPO 08015G25KT
  • 211050Z AUTO 08014KT 040V130 CAVOK 10/M01 Q1025 TEMPO 08015G25KT
  • 211020Z AUTO 07014KT 020V110 9999 SCT048 09/M01 Q1025 NOSIG

TAF TAF EDDW
Valido dal 21 a 12 ore il 22 a 12 ore UTC


211100Z 2112/2212 06008KT 9999 FEW045
PROB40
TEMPO 2112/2118 07015G25KT 3500 SHGSRA BKN020CB
BECMG 2120/2122 VRB03KT



MetMap, La meteo Aeronautica in un colpo d'occhio ! - Copyright ORBIFLY Dicembre 2007 - Disclaimer

ORBIFLY MET'MAP TEAM :

Programmazione e sviluppo : Alexandra Zaïnal
Concezione : Baudouin d'Aumeries
Supporto tecnico e logistico : Manuel Goepfert
Aiuto : Marc-Olivier Méhu
Aiuto per la traduzione : Arnaldo La Scala




FONTI E CREDITI :

   NOAA